Savannah Hilton Head International Airport
KSAV : now visible

Airfield :











YOU CAN JOIN US ON...

 
LOGIN :

Register | Disclaimer

   EN    FR    IT 

 









Legend :    VFR   Marginal VFR   IFR   Intensive IFR   Very Intensive IFR
Visi :
Ceiling :
>= 8 km
>= 3000ft
5 to 8 km
1000 to 3000 ft
1500m to 5 km
500 to 1000 ft
800 to 1500m
200 to 500 ft
< 800m
< 200 ft
Symbols :   Thunderstorms  Fog  Heavy snow  Heavy precipitations  Wind > 20 kt






- Airport Elevation : 50 ft
- IATA code : SAV


KSAV - Savannah Hilton Head International

CURRENT METAR :
  • 261553Z 24003KT 10SM SCT016 BKN085 OVC170 21/17 A2990 RMK AO2 SLP123 T02110172

EXPIRED METARs :
  • 261453Z 26007KT 10SM FEW011 BKN090 BKN190 OVC250 21/17 A2991 RMK AO2 SLP126 T02060167 53007
  • 261353Z 27004KT 10SM FEW011 BKN080 OVC150 20/17 A2990 RMK AO2 SLP123 T02000172

TAF KSAV
Valid from the 26 at 12:00 until the 27 at 12:00 UTC


261136Z 2612/2712 23005KT P6SM SCT015 BKN080
TEMPO 2612/2615 -RA BKN020
FM262000 20008KT 3SM RA BR BKN015
FM262300 24007KT P6SM -RA BKN012
FM270000 28010KT P6SM SCT020 BKN080
FM270300 30013G20KT P6SM BKN250



MET'MAP, your aeronautical weather chart ! - Copyright ORBIFLY December 2007 - Disclaimer

ORBIFLY MET'MAP TEAM :

Programming & Development : Alexandra Zaïnal
Concept & original design : Baudouin d'Aumeries
Assistance for programming : Marc-Olivier Méhu
Technical & hardware support : Manuel Goepfert

Contact : metmap@orbifly.com




SOURCES & CREDITS :

   NOAA       Earth
Advisory